Pernik, Bulgaria
Current Conditions -  °F | °C
As of 12:00 PM on Wednesday 28 Jan 2015 (Local Time) from LBSF Reporting Station
Overcast Overcast  
Wind Chill: 29°   Ceiling: 2300
Heat Index: 36°   Visibility: 6mi
Dew Point: 32°   Wind: 9mph
Humidity: 87%   Direction: 290°WNW
Pressure: 29.88"   Gusts: NA
Location:  42.61°N, 23.03°E
Report Text: LBSF 280900Z 29008KT 9999 SCT013 BKN023 OVC054 02/M00 Q1012 R99/19//85 NOSIG
Loading
Personal Weather Stations






























Interactive Weather Map New forecast layout! Learn more

10-Day Weather Forecast

Advertisements
Track Severe Weather on mobile